createdAt,value
2022-09-04T00:00:26.377Z,131.95
2022-09-04T00:02:52.697Z,140.88
2022-09-04T00:05:20.202Z,77.97
2022-09-04T00:07:46.745Z,64.55
2022-09-04T00:10:13.058Z,160.52
2022-09-04T00:12:39.361Z,100.03
2022-09-04T00:15:05.664Z,67.03
2022-09-04T00:17:31.964Z,73.13
2022-09-04T00:19:59.524Z,72.90
2022-09-04T00:22:26.249Z,79.20
2022-09-04T00:24:52.547Z,82.28
2022-09-04T00:27:18.853Z,76.80
2022-09-04T00:29:45.157Z,87.68
2022-09-04T00:32:11.466Z,97.85
2022-09-04T00:34:37.785Z,82.25
2022-09-04T00:37:04.521Z,78.97
2022-09-04T00:39:30.836Z,97.45
2022-09-04T00:41:57.169Z,72.13
2022-09-04T00:44:23.472Z,87.40
2022-09-04T00:46:51.899Z,86.75
2022-09-04T00:49:18.204Z,86.53
2022-09-04T00:51:44.508Z,98.95
2022-09-04T00:54:10.807Z,102.80
2022-09-04T00:56:37.140Z,83.63
2022-09-04T00:59:03.445Z,77.85
2022-09-04T01:01:29.834Z,73.05
2022-09-04T01:03:56.617Z,63.40
2022-09-04T01:06:25.020Z,78.57
2022-09-04T01:08:56.213Z,87.00
2022-09-04T01:11:22.917Z,61.92
2022-09-04T01:13:49.230Z,130.13
2022-09-04T01:16:15.811Z,75.50
2022-09-04T01:18:42.139Z,67.88
2022-09-04T01:21:08.495Z,84.88
2022-09-04T01:23:35.182Z,65.75
2022-09-04T01:26:01.501Z,67.13
2022-09-04T01:28:27.886Z,81.43
2022-09-04T01:30:54.182Z,65.28
2022-09-04T01:33:20.485Z,60.95
2022-09-04T01:35:46.783Z,59.90
2022-09-04T01:38:13.079Z,82.50
2022-09-04T01:40:39.399Z,60.05
2022-09-04T01:43:05.699Z,64.88
2022-09-04T01:45:32.051Z,62.95
2022-09-04T01:47:58.373Z,60.83
2022-09-04T01:50:24.691Z,90.65
2022-09-04T01:52:50.999Z,136.35
2022-09-04T01:55:17.344Z,165.68
2022-09-04T01:57:43.647Z,103.05
2022-09-04T02:00:10.276Z,80.80
2022-09-04T02:02:36.681Z,108.05
2022-09-04T02:05:07.733Z,132.20
2022-09-04T02:07:34.730Z,84.50
2022-09-04T02:10:01.028Z,84.28
2022-09-04T02:12:27.378Z,83.45
2022-09-04T02:14:54.019Z,70.10
2022-09-04T02:17:20.377Z,73.22
2022-09-04T02:19:47.661Z,74.85
2022-09-04T02:22:15.166Z,89.05
2022-09-04T02:24:41.460Z,86.22
2022-09-04T02:27:07.764Z,73.30
2022-09-04T02:29:34.067Z,91.13
2022-09-04T02:32:00.429Z,63.22
2022-09-04T02:34:26.763Z,93.28
2022-09-04T02:36:53.066Z,55.15
2022-09-04T02:39:19.393Z,64.72
2022-09-04T02:41:50.715Z,63.92
2022-09-04T02:44:17.020Z,51.50
2022-09-04T02:46:43.578Z,55.22
2022-09-04T02:49:09.888Z,61.15
2022-09-04T02:51:39.192Z,78.47
2022-09-04T02:54:05.498Z,71.93
2022-09-04T02:56:31.803Z,62.53
2022-09-04T02:58:58.108Z,69.80
2022-09-04T03:01:24.437Z,99.60
2022-09-04T03:03:50.793Z,110.20
2022-09-04T03:06:17.099Z,119.43
2022-09-04T03:08:43.400Z,107.93
2022-09-04T03:11:12.464Z,79.18
2022-09-04T03:13:38.759Z,62.13
2022-09-04T03:16:05.118Z,51.63
2022-09-04T03:18:31.467Z,60.00
2022-09-04T03:20:58.030Z,58.50
2022-09-04T03:23:24.535Z,53.60
2022-09-04T03:25:50.865Z,61.70
2022-09-04T03:28:17.245Z,80.45
2022-09-04T03:30:43.568Z,51.30
2022-09-04T03:33:11.136Z,66.03
2022-09-04T03:35:37.715Z,72.05
2022-09-04T03:38:04.027Z,72.13
2022-09-04T03:40:30.376Z,67.70
2022-09-04T03:42:56.687Z,64.72
2022-09-04T03:45:22.996Z,72.70
2022-09-04T03:47:49.321Z,77.93
2022-09-04T03:50:15.629Z,88.07
2022-09-04T03:52:41.977Z,75.50
2022-09-04T03:55:08.281Z,81.53
2022-09-04T03:57:34.605Z,134.40
2022-09-04T04:00:00.953Z,91.07
2022-09-04T04:02:27.322Z,88.63
2022-09-04T04:04:53.667Z,95.63
2022-09-04T04:07:20.005Z,107.00
2022-09-04T04:09:46.303Z,85.65
2022-09-04T04:12:13.069Z,93.55
2022-09-04T04:14:39.417Z,104.53
2022-09-04T04:17:06.004Z,96.90
2022-09-04T04:19:33.741Z,103.93
2022-09-04T04:22:00.055Z,103.30
2022-09-04T04:24:30.418Z,87.82
2022-09-04T04:26:56.725Z,97.78
2022-09-04T04:29:25.340Z,57.20
2022-09-04T04:32:10.423Z,51.40
2022-09-04T04:34:36.729Z,50.10
2022-09-04T04:37:03.053Z,47.60
2022-09-04T04:39:30.382Z,51.42
2022-09-04T04:42:05.889Z,59.63
2022-09-04T04:44:50.976Z,59.75
2022-09-04T04:47:17.292Z,51.03
2022-09-04T04:49:43.599Z,47.05
2022-09-04T04:52:09.917Z,49.03
2022-09-04T04:54:36.226Z,59.47
2022-09-04T04:57:03.724Z,56.25
2022-09-04T04:59:30.020Z,50.35
2022-09-04T05:01:56.468Z,62.80
2022-09-04T05:04:23.180Z,52.08
2022-09-04T05:06:49.807Z,44.78
2022-09-04T05:09:16.112Z,51.15
2022-09-04T05:11:42.409Z,64.25
2022-09-04T05:14:08.707Z,65.25
2022-09-04T05:16:35.072Z,51.03
2022-09-04T05:19:01.428Z,58.67
2022-09-04T05:21:27.747Z,59.00
2022-09-04T05:23:54.047Z,58.53
2022-09-04T05:26:20.393Z,51.88
2022-09-04T05:28:46.725Z,53.50
2022-09-04T05:31:13.116Z,57.60
2022-09-04T05:33:39.448Z,59.40
2022-09-04T05:36:05.755Z,58.92
2022-09-04T05:38:32.047Z,58.00
2022-09-04T05:40:58.368Z,58.97
2022-09-04T05:43:24.664Z,63.35
2022-09-04T05:45:50.986Z,87.68
2022-09-04T05:48:17.295Z,78.93
2022-09-04T05:50:43.652Z,71.78
2022-09-04T05:53:10.021Z,65.45
2022-09-04T05:55:36.331Z,85.80
2022-09-04T05:58:02.644Z,79.28
2022-09-04T06:00:28.939Z,98.50
2022-09-04T06:02:55.367Z,113.22
2022-09-04T06:05:21.741Z,165.50
2022-09-04T06:07:48.055Z,110.68
2022-09-04T06:10:14.359Z,104.50
2022-09-04T06:12:40.683Z,172.27
2022-09-04T06:15:06.991Z,119.60
2022-09-04T06:17:33.292Z,72.22
2022-09-04T06:19:59.594Z,59.30
2022-09-04T06:22:25.908Z,76.60
2022-09-04T06:24:52.229Z,76.28
2022-09-04T06:27:18.527Z,84.68
2022-09-04T06:29:44.832Z,78.85
2022-09-04T06:32:11.127Z,72.90
2022-09-04T06:34:37.435Z,87.93
2022-09-04T06:37:03.734Z,61.72
2022-09-04T06:39:30.675Z,71.65
2022-09-04T06:41:56.963Z,64.07
2022-09-04T06:44:23.445Z,97.85
2022-09-04T06:46:49.828Z,138.95
2022-09-04T06:49:16.184Z,130.38
2022-09-04T06:51:42.917Z,116.47
2022-09-04T06:54:09.227Z,121.90
2022-09-04T06:56:35.535Z,128.48
2022-09-04T06:59:01.845Z,79.72
2022-09-04T07:01:30.068Z,70.68
2022-09-04T07:03:56.466Z,81.38
2022-09-04T07:06:22.913Z,71.45
2022-09-04T07:08:49.212Z,62.15
2022-09-04T07:11:15.557Z,50.38
2022-09-04T07:13:41.864Z,52.05
2022-09-04T07:16:09.335Z,54.20
2022-09-04T07:18:35.708Z,61.58
2022-09-04T07:21:02.262Z,67.97
2022-09-04T07:23:28.732Z,96.65
2022-09-04T07:25:56.648Z,54.38
2022-09-04T07:30:49.236Z,61.40
2022-09-04T07:33:15.921Z,63.17
2022-09-04T07:35:42.263Z,58.67
2022-09-04T07:38:08.560Z,64.55
2022-09-04T07:40:34.878Z,48.40
2022-09-04T07:43:05.885Z,49.47
2022-09-04T07:45:32.380Z,58.95
2022-09-04T07:47:59.057Z,56.90
2022-09-04T07:50:25.431Z,85.53
2022-09-04T07:52:51.969Z,73.38
2022-09-04T07:55:18.260Z,55.90
2022-09-04T07:57:44.563Z,73.00
2022-09-04T08:00:13.586Z,86.45
2022-09-04T08:02:39.957Z,80.15
2022-09-04T08:05:06.334Z,67.10
2022-09-04T08:07:32.663Z,55.63
2022-09-04T08:09:58.960Z,73.97
2022-09-04T08:12:25.639Z,54.03
2022-09-04T08:14:51.939Z,57.25
2022-09-04T08:17:20.810Z,76.13
2022-09-04T08:19:47.130Z,52.10
2022-09-04T08:22:13.505Z,52.80
2022-09-04T08:24:40.523Z,61.15
2022-09-04T08:27:09.233Z,71.80
2022-09-04T08:29:35.528Z,58.30
2022-09-04T08:32:04.409Z,47.67
2022-09-04T08:34:30.711Z,43.70
2022-09-04T08:36:57.028Z,49.70
2022-09-04T08:39:23.449Z,49.67
2022-09-04T08:41:50.043Z,59.10
2022-09-04T08:44:16.354Z,55.28
2022-09-04T08:46:47.462Z,50.53
2022-09-04T08:49:17.014Z,45.63
2022-09-04T08:51:43.333Z,43.72
2022-09-04T08:54:09.638Z,66.95
2022-09-04T08:56:36.274Z,49.80
2022-09-04T08:59:02.585Z,60.00
2022-09-04T09:01:29.502Z,48.28
2022-09-04T09:03:55.935Z,53.05
2022-09-04T09:06:22.291Z,53.63
2022-09-04T09:08:48.695Z,47.60
2022-09-04T09:11:15.007Z,56.67
2022-09-04T09:13:43.590Z,47.53
2022-09-04T09:16:09.900Z,52.20
2022-09-04T09:18:37.290Z,63.70
2022-09-04T09:21:07.038Z,90.35
2022-09-04T09:23:33.360Z,54.05
2022-09-04T09:26:06.219Z,88.13
2022-09-04T09:28:32.812Z,62.28
2022-09-04T09:30:59.172Z,58.08
2022-09-04T09:33:25.548Z,58.63
2022-09-04T09:35:55.858Z,62.92
2022-09-04T09:38:22.241Z,88.78
2022-09-04T09:40:48.540Z,63.08
2022-09-04T09:43:14.876Z,53.33
2022-09-04T09:45:42.027Z,55.72
2022-09-04T09:48:11.522Z,64.82
2022-09-04T09:50:38.421Z,53.55
2022-09-04T09:53:04.725Z,55.72
2022-09-04T09:55:31.024Z,54.67
2022-09-04T09:57:57.343Z,54.17
2022-09-04T10:00:25.655Z,59.42
2022-09-04T10:02:52.003Z,58.03
2022-09-04T10:05:19.276Z,48.08
2022-09-04T10:07:45.667Z,50.17
2022-09-04T10:10:12.206Z,50.53
2022-09-04T10:12:41.816Z,51.92
2022-09-04T10:15:08.127Z,52.35
2022-09-04T10:17:34.427Z,47.95
2022-09-04T10:20:00.731Z,44.72
2022-09-04T10:22:27.023Z,50.85
2022-09-04T10:24:53.597Z,49.20
2022-09-04T10:27:19.895Z,44.40
2022-09-04T10:29:46.418Z,46.30
2022-09-04T10:32:12.728Z,55.10
2022-09-04T10:34:39.045Z,50.97
2022-09-04T10:37:05.350Z,57.13
2022-09-04T10:39:57.716Z,60.80
2022-09-04T10:42:24.067Z,50.47
2022-09-04T10:44:50.520Z,51.63
2022-09-04T10:47:16.828Z,68.53
2022-09-04T10:49:43.137Z,46.08
2022-09-04T10:52:09.670Z,46.95
2022-09-04T10:54:36.004Z,47.08
2022-09-04T10:57:02.304Z,49.75
2022-09-04T10:59:29.136Z,65.35
2022-09-04T11:01:55.490Z,59.47
2022-09-04T11:04:22.466Z,50.95
2022-09-04T11:06:49.361Z,50.13
2022-09-04T11:09:15.668Z,54.72
2022-09-04T11:11:42.142Z,48.45
2022-09-04T11:14:08.441Z,44.63
2022-09-04T11:16:34.805Z,58.30
2022-09-04T11:19:01.158Z,47.22
2022-09-04T11:21:29.173Z,52.35
2022-09-04T11:23:56.270Z,54.38
2022-09-04T11:26:24.428Z,47.60
2022-09-04T11:28:51.309Z,47.75
2022-09-04T11:31:20.753Z,59.65
2022-09-04T11:33:47.883Z,55.20
2022-09-04T11:36:14.282Z,49.45
2022-09-04T11:38:43.786Z,64.22
2022-09-04T11:41:10.187Z,59.13
2022-09-04T11:43:37.414Z,55.38
2022-09-04T11:46:03.950Z,57.72
2022-09-04T11:48:30.303Z,61.67
2022-09-04T11:51:01.446Z,54.15
2022-09-04T11:53:27.797Z,64.88
2022-09-04T11:55:54.095Z,58.15
2022-09-04T11:58:20.507Z,56.53
2022-09-04T12:00:47.173Z,56.05
2022-09-04T12:03:13.483Z,60.05
2022-09-04T12:05:39.771Z,58.78
2022-09-04T12:08:07.049Z,78.38
2022-09-04T12:10:33.364Z,79.13
2022-09-04T12:13:00.434Z,79.22
2022-09-04T12:15:41.183Z,76.28
2022-09-04T12:18:08.435Z,76.03
2022-09-04T12:20:34.731Z,66.63
2022-09-04T12:23:01.610Z,72.75
2022-09-04T12:25:27.923Z,64.57
2022-09-04T12:27:54.261Z,63.72
2022-09-04T12:30:20.567Z,69.88
2022-09-04T12:32:46.882Z,64.38
2022-09-04T12:35:13.272Z,71.95
2022-09-04T12:37:43.415Z,69.45
2022-09-04T12:40:09.825Z,75.60
2022-09-04T12:42:36.237Z,65.15
2022-09-04T12:45:02.592Z,76.70
2022-09-04T12:47:28.915Z,74.07
2022-09-04T12:49:58.115Z,82.60
2022-09-04T12:52:24.424Z,72.70
2022-09-04T12:54:51.219Z,74.30
2022-09-04T12:57:17.482Z,86.23
2022-09-04T12:59:45.556Z,77.32
2022-09-04T13:02:12.092Z,71.97
2022-09-04T13:04:40.531Z,66.43
2022-09-04T13:07:15.656Z,74.18
2022-09-04T13:09:42.751Z,63.28
2022-09-04T13:12:19.692Z,70.57
2022-09-04T13:14:46.138Z,73.18
2022-09-04T13:17:12.573Z,70.55
2022-09-04T13:19:38.901Z,69.25
2022-09-04T13:22:05.224Z,81.78
2022-09-04T13:24:35.769Z,73.88
2022-09-04T13:27:02.508Z,83.05
2022-09-04T13:29:29.465Z,76.68
2022-09-04T13:31:56.152Z,69.50
2022-09-04T13:34:24.231Z,62.92
2022-09-04T13:36:54.125Z,87.70
2022-09-04T13:39:20.754Z,97.82
2022-09-04T13:41:47.941Z,113.72
2022-09-04T13:44:14.276Z,101.47
2022-09-04T13:46:40.648Z,76.82
2022-09-04T13:49:07.048Z,80.10
2022-09-04T13:51:33.355Z,83.70
2022-09-04T13:53:59.672Z,63.60
2022-09-04T13:56:26.324Z,69.10
2022-09-04T13:58:52.632Z,57.20
2022-09-04T14:01:21.661Z,78.28
2022-09-04T14:03:48.643Z,54.97
2022-09-04T14:06:15.018Z,69.28
2022-09-04T14:08:43.104Z,67.13
2022-09-04T14:11:10.021Z,56.15
2022-09-04T14:13:37.987Z,81.15
2022-09-04T14:16:04.522Z,68.88
2022-09-04T14:18:31.087Z,110.03
2022-09-04T14:21:01.597Z,82.40
2022-09-04T14:23:29.712Z,117.50
2022-09-04T14:25:56.040Z,90.13
2022-09-04T14:28:22.476Z,73.00
2022-09-04T14:30:48.786Z,136.95
2022-09-04T14:33:19.470Z,121.72
2022-09-04T14:35:49.292Z,94.65
2022-09-04T14:38:16.212Z,116.22
2022-09-04T14:40:42.517Z,94.22
2022-09-04T14:43:08.829Z,121.13
2022-09-04T14:45:35.264Z,114.88
2022-09-04T14:48:03.594Z,129.60
2022-09-04T14:50:30.229Z,113.18
2022-09-04T14:52:56.548Z,99.32
2022-09-04T14:55:22.847Z,89.60
2022-09-04T14:57:50.176Z,89.00
2022-09-04T15:00:19.742Z,91.18
2022-09-04T15:02:46.064Z,79.07
2022-09-04T15:05:12.388Z,58.30
2022-09-04T15:07:38.688Z,68.80
2022-09-04T15:10:07.329Z,63.55
2022-09-04T15:12:33.663Z,76.25
2022-09-04T15:14:59.963Z,71.45
2022-09-04T15:17:28.291Z,71.03
2022-09-04T15:19:55.421Z,69.20
2022-09-04T15:22:21.725Z,77.68
2022-09-04T15:24:48.041Z,64.18
2022-09-04T15:27:16.277Z,72.43
2022-09-04T15:29:42.921Z,72.05
2022-09-04T15:32:14.017Z,82.30
2022-09-04T15:34:40.747Z,67.75
2022-09-04T15:37:07.046Z,68.82
2022-09-04T15:39:33.420Z,78.75
2022-09-04T15:42:00.091Z,67.40
2022-09-04T15:44:29.953Z,67.50
2022-09-04T15:46:56.718Z,77.43
2022-09-04T15:49:23.035Z,73.53
2022-09-04T15:51:49.344Z,71.00
2022-09-04T15:54:15.675Z,70.72
2022-09-04T15:56:45.401Z,61.78
2022-09-04T15:59:14.720Z,62.22
2022-09-04T16:01:43.095Z,67.80
2022-09-04T16:04:12.525Z,73.78
2022-09-04T16:06:38.824Z,75.78
2022-09-04T16:09:05.135Z,81.43
2022-09-04T16:11:31.542Z,81.78
2022-09-04T16:13:59.057Z,64.43
2022-09-04T16:16:25.385Z,78.97
2022-09-04T16:18:51.760Z,80.80
2022-09-04T16:21:18.365Z,73.75
2022-09-04T16:23:44.671Z,72.32
2022-09-04T16:26:11.288Z,60.72
2022-09-04T16:28:37.926Z,59.22
2022-09-04T16:31:04.637Z,59.17
2022-09-04T16:33:30.920Z,62.42
2022-09-04T16:35:57.219Z,78.00
2022-09-04T16:38:24.356Z,81.10
2022-09-04T16:40:54.225Z,63.20
2022-09-04T16:43:21.532Z,105.35
2022-09-04T16:45:48.495Z,77.97
2022-09-04T16:48:33.725Z,68.82
2022-09-04T16:51:23.506Z,66.35
2022-09-04T16:53:52.124Z,71.90
2022-09-04T16:56:18.424Z,99.47
2022-09-04T16:58:46.080Z,80.70
2022-09-04T17:01:14.361Z,78.68
2022-09-04T17:03:41.750Z,104.15
2022-09-04T17:06:08.996Z,79.55
2022-09-04T17:08:35.321Z,81.15
2022-09-04T17:11:07.683Z,93.30
2022-09-04T17:13:36.907Z,93.80
2022-09-04T17:16:03.509Z,96.30
2022-09-04T17:18:29.916Z,99.65
2022-09-04T17:22:49.964Z,80.45
2022-09-04T17:29:00.322Z,96.25
2022-09-04T17:29:18.361Z,79.68
2022-09-04T17:29:37.337Z,85.20
2022-09-04T17:40:35.701Z,50.00
2022-09-04T17:40:37.146Z,57.00
2022-09-04T17:40:43.498Z,58.85
2022-09-04T17:43:22.261Z,46.30
2022-09-04T17:45:51.271Z,41.25
2022-09-04T17:48:17.801Z,40.03
2022-09-04T17:50:44.795Z,44.60
2022-09-04T17:53:17.709Z,45.23
2022-09-04T17:55:58.827Z,39.25
2022-09-04T17:58:35.175Z,41.65
2022-09-04T18:01:14.716Z,43.53
2022-09-04T18:03:42.242Z,55.55
2022-09-04T18:06:28.528Z,55.38
2022-09-04T18:08:55.945Z,55.80
2022-09-04T18:11:22.844Z,51.17
2022-09-04T18:13:52.005Z,71.90
2022-09-04T18:16:18.399Z,67.95
2022-09-04T18:18:44.780Z,68.80
2022-09-04T18:21:11.072Z,66.18
2022-09-04T18:23:51.679Z,65.90
2022-09-04T18:26:18.575Z,81.65
2022-09-04T18:28:48.643Z,64.35
2022-09-04T18:37:06.723Z,59.42
2022-09-04T18:37:24.340Z,67.20
2022-09-04T18:37:26.040Z,61.13
2022-09-04T18:39:35.929Z,66.85
2022-09-04T18:49:43.080Z,58.38
2022-09-04T18:50:32.230Z,68.47
2022-09-04T18:50:44.415Z,57.17
2022-09-04T18:51:04.454Z,74.55
2022-09-04T18:53:07.461Z,73.85
2022-09-04T18:55:33.758Z,67.38
2022-09-04T18:58:00.054Z,66.03
2022-09-04T19:00:26.397Z,63.05
2022-09-04T19:02:53.422Z,62.28
2022-09-04T19:05:20.166Z,63.47
2022-09-04T19:07:46.499Z,75.72
2022-09-04T19:10:12.939Z,94.18
2022-09-04T19:12:46.953Z,66.10
2022-09-04T19:15:14.969Z,89.03
2022-09-04T19:17:41.263Z,76.32
2022-09-04T19:20:08.611Z,86.18
2022-09-04T19:22:34.997Z,79.07
2022-09-04T19:25:03.731Z,59.08
2022-09-04T19:29:56.298Z,85.18
2022-09-04T19:32:29.943Z,97.88
2022-09-04T19:34:56.236Z,96.40
2022-09-04T19:37:54.356Z,95.78
2022-09-04T19:45:54.750Z,79.50
2022-09-04T19:46:12.821Z,57.15
2022-09-04T19:46:13.087Z,62.25
2022-09-04T19:48:27.973Z,64.45
2022-09-04T19:53:33.979Z,81.90
2022-09-04T19:53:46.937Z,69.63
2022-09-04T19:56:15.924Z,65.90
2022-09-04T19:58:44.335Z,68.43
2022-09-04T20:01:10.825Z,65.72
2022-09-04T20:03:37.560Z,59.47
2022-09-04T20:06:21.171Z,64.67
2022-09-04T20:08:51.547Z,66.68
2022-09-04T20:11:30.635Z,58.03
2022-09-04T20:14:02.443Z,85.53
2022-09-04T20:16:40.565Z,63.33
2022-09-04T20:19:14.893Z,64.03
2022-09-04T20:21:46.570Z,58.08
2022-09-04T20:24:12.875Z,82.28
2022-09-04T20:26:39.182Z,72.18
2022-09-04T20:29:05.484Z,76.15
2022-09-04T20:31:36.167Z,78.28
2022-09-04T20:34:03.323Z,60.05
2022-09-04T20:36:35.969Z,94.53
2022-09-04T20:39:02.492Z,118.38
2022-09-04T20:41:29.195Z,108.35
2022-09-04T20:43:56.057Z,102.07
2022-09-04T21:03:21.497Z,97.07
2022-09-04T21:03:39.968Z,103.70
2022-09-04T21:06:07.338Z,95.73
2022-09-04T21:08:34.069Z,95.65
2022-09-04T21:11:00.387Z,83.78
2022-09-04T21:13:26.825Z,62.88
2022-09-04T21:15:53.455Z,61.80
2022-09-04T21:18:23.316Z,63.03
2022-09-04T21:21:00.318Z,72.22
2022-09-04T21:23:27.028Z,66.60
2022-09-04T21:26:02.048Z,71.50
2022-09-04T21:28:28.353Z,83.68
2022-09-04T21:30:54.715Z,82.95
2022-09-04T21:33:28.098Z,99.15
2022-09-04T21:35:55.726Z,83.18
2022-09-04T21:38:26.635Z,66.40
2022-09-04T21:40:53.047Z,72.22
2022-09-04T21:43:19.470Z,76.88
2022-09-04T21:45:45.813Z,81.13
2022-09-04T21:48:18.488Z,84.55
2022-09-04T21:50:50.691Z,101.32
2022-09-04T21:53:18.859Z,108.30
2022-09-04T22:00:02.066Z,100.03
2022-09-04T22:02:37.438Z,71.68
2022-09-04T22:02:41.884Z,60.88
2022-09-04T22:04:04.481Z,55.50
2022-09-04T22:07:03.516Z,65.93
2022-09-04T22:13:30.723Z,81.65
2022-09-04T22:13:32.523Z,75.82
2022-09-04T22:14:50.088Z,82.28
2022-09-04T22:17:16.389Z,78.32
2022-09-04T22:19:42.722Z,76.68
2022-09-04T22:22:09.036Z,70.70
2022-09-04T22:24:41.074Z,73.47
2022-09-04T22:27:07.792Z,83.65
2022-09-04T22:29:40.212Z,91.97
2022-09-04T22:32:06.746Z,88.38
2022-09-04T22:34:39.282Z,101.38
2022-09-04T22:37:05.588Z,83.68
2022-09-04T22:39:32.347Z,97.88
2022-09-04T22:41:58.687Z,103.28
2022-09-04T22:44:24.987Z,102.88
2022-09-04T22:46:51.319Z,97.07
2022-09-04T22:49:17.633Z,136.27
2022-09-04T22:51:43.965Z,113.05
2022-09-04T22:54:10.286Z,119.57
2022-09-04T22:56:36.579Z,84.60
2022-09-04T22:59:10.533Z,90.40
2022-09-04T23:01:49.217Z,81.90
2022-09-04T23:04:15.594Z,82.60
2022-09-04T23:10:05.078Z,75.40
2022-09-04T23:13:50.172Z,75.63
2022-09-04T23:14:01.501Z,68.28
2022-09-04T23:15:08.279Z,72.75
2022-09-04T23:17:35.265Z,79.43
2022-09-04T23:26:36.978Z,83.75
2022-09-04T23:26:43.385Z,76.82
2022-09-04T23:28:28.242Z,71.47
2022-09-04T23:30:55.025Z,67.05
2022-09-04T23:33:27.962Z,89.88
2022-09-04T23:35:54.584Z,75.68
2022-09-04T23:38:20.896Z,85.32
2022-09-04T23:40:47.263Z,158.45
2022-09-04T23:43:13.572Z,161.23
2022-09-04T23:45:49.592Z,111.00
2022-09-04T23:48:26.440Z,109.32
2022-09-04T23:50:52.742Z,121.40
2022-09-04T23:53:19.135Z,123.55
2022-09-04T23:55:48.889Z,198.15
2022-09-04T23:58:34.544Z,128.30
